Time;durP1;ratioP1;P1;durP2;ratioP2;P2;SDS_P1;SDS_P2;PMS_P1;PMS_P2;Temp;Humidity;BMP_temperature;BMP_pressure;BME280_temperature;BME280_humidity;BME280_pressure;Samples;Min_cycle;Max_cycle;Signal;HPM_P1;HPM_P2
2023/12/15 00:00:30;;;;;;;38.33;18.55;;;5.30;99.90;;;;;;5048563;28;20045;-79
2023/12/15 00:02:56;;;;;;;31.60;16.63;;;5.30;99.90;;;;;;5050392;28;20128;-81
2023/12/15 00:05:22;;;;;;;37.15;17.75;;;5.30;99.90;;;;;;5047735;28;20128;-81
2023/12/15 00:07:48;;;;;;;41.50;18.65;;;5.30;99.90;;;;;;5044985;28;20123;-81
2023/12/15 00:10:13;;;;;;;34.88;17.27;;;5.40;99.90;;;;;;5045426;28;20478;-80
2023/12/15 00:12:39;;;;;;;35.08;17.40;;;5.40;99.90;;;;;;5045576;28;20071;-80
2023/12/15 00:15:06;;;;;;;33.05;16.90;;;5.40;99.90;;;;;;5046440;28;20044;-79
2023/12/15 00:17:31;;;;;;;43.08;19.10;;;5.40;99.90;;;;;;5042104;28;20037;-80
2023/12/15 00:19:57;;;;;;;40.05;18.88;;;5.40;99.90;;;;;;5041568;28;20408;-80
2023/12/15 00:22:23;;;;;;;36.40;19.10;;;5.40;99.90;;;;;;5048071;28;20084;-80
2023/12/15 00:24:48;;;;;;;39.17;19.52;;;5.40;99.90;;;;;;5082809;28;20040;-80
2023/12/15 00:27:14;;;;;;;35.85;17.65;;;5.90;99.90;;;;;;5077831;28;20040;-80
2023/12/15 00:29:40;;;;;;;33.58;17.85;;;5.50;99.90;;;;;;5050591;28;20090;-80
2023/12/15 00:32:05;;;;;;;40.35;18.77;;;5.50;99.90;;;;;;5028134;28;20087;-79
2023/12/15 00:34:31;;;;;;;34.55;18.25;;;5.50;99.90;;;;;;5034037;28;20559;-80
2023/12/15 00:36:57;;;;;;;34.00;18.13;;;5.50;99.90;;;;;;5047552;28;20150;-80
2023/12/15 00:39:22;;;;;;;38.33;17.73;;;5.50;99.90;;;;;;5032581;28;20091;-80
2023/12/15 00:41:48;;;;;;;39.47;19.13;;;5.50;99.90;;;;;;5047870;28;20058;-80
2023/12/15 00:44:13;;;;;;;33.05;18.05;;;5.60;99.90;;;;;;5048635;28;20036;-80
2023/12/15 00:46:39;;;;;;;40.35;19.13;;;5.60;99.90;;;;;;5049285;28;20040;-80
2023/12/15 00:49:05;;;;;;;39.05;19.38;;;5.60;99.90;;;;;;5050047;28;20404;-80
2023/12/15 00:51:30;;;;;;;42.22;19.85;;;5.70;99.90;;;;;;5042049;28;20071;-81
2023/12/15 00:53:56;;;;;;;39.63;19.20;;;5.80;99.90;;;;;;5048863;28;20032;-80
2023/12/15 00:56:21;;;;;;;39.80;19.85;;;5.60;99.90;;;;;;5047904;28;20033;-80
2023/12/15 00:58:47;;;;;;;34.47;18.92;;;5.60;99.90;;;;;;5029434;28;20051;-80
2023/12/15 01:01:12;;;;;;;41.42;20.23;;;5.70;99.90;;;;;;5045480;28;20087;-79
2023/12/15 01:03:38;;;;;;;41.15;20.40;;;5.70;99.90;;;;;;5047125;28;20033;-80
2023/12/15 01:06:04;;;;;;;49.75;21.95;;;5.70;99.90;;;;;;5043268;28;20428;-80
2023/12/15 01:08:30;;;;;;;40.95;20.17;;;5.70;99.90;;;;;;5049175;28;20044;-80
2023/12/15 01:10:55;;;;;;;39.28;20.10;;;5.70;99.90;;;;;;5046247;28;20033;-79
2023/12/15 01:13:21;;;;;;;51.00;21.10;;;5.70;99.90;;;;;;5040420;28;20528;-80
2023/12/15 01:15:47;;;;;;;47.83;21.75;;;5.70;99.90;;;;;;5047327;28;20093;-80
2023/12/15 01:18:12;;;;;;;49.25;22.15;;;5.80;99.90;;;;;;5048702;28;20407;-80
2023/12/15 01:20:38;;;;;;;44.50;20.90;;;5.80;99.90;;;;;;5048347;28;20048;-80
2023/12/15 01:23:04;;;;;;;56.92;23.73;;;5.80;99.90;;;;;;5046356;28;20040;-80
2023/12/15 01:25:29;;;;;;;53.60;23.60;;;5.80;99.90;;;;;;5045151;28;20033;-80
2023/12/15 01:27:55;;;;;;;52.83;21.60;;;5.80;99.90;;;;;;5044199;28;20036;-80
2023/12/15 01:30:21;;;;;;;56.47;23.10;;;5.90;99.90;;;;;;5042924;28;20053;-80
2023/12/15 01:32:46;;;;;;;57.78;23.13;;;5.90;99.90;;;;;;5046659;28;20049;-80
2023/12/15 01:35:12;;;;;;;62.83;24.48;;;5.90;99.90;;;;;;5052376;28;20047;-80
2023/12/15 01:37:38;;;;;;;61.17;24.63;;;5.90;99.90;;;;;;5053260;28;20056;-80
2023/12/15 01:40:03;;;;;;;57.35;23.08;;;6.00;99.90;;;;;;5045698;28;20041;-80
2023/12/15 01:42:29;;;;;;;61.42;24.38;;;5.90;99.90;;;;;;5065350;28;20033;-81
2023/12/15 01:44:55;;;;;;;52.72;23.65;;;5.90;99.90;;;;;;5079520;28;20051;-80
2023/12/15 01:47:24;;;;;;;54.47;22.80;;;6.30;99.90;;;;;;5083234;28;20033;-80
2023/12/15 01:49:50;;;;;;;67.05;24.65;;;6.00;99.90;;;;;;5053379;28;20067;-80
2023/12/15 01:52:16;;;;;;;51.65;22.38;;;6.00;99.90;;;;;;5051982;28;20082;-80
2023/12/15 01:54:42;;;;;;;64.72;24.13;;;6.10;99.90;;;;;;5051395;28;20045;-80
2023/12/15 01:57:08;;;;;;;57.53;24.15;;;6.00;99.90;;;;;;5052108;28;20075;-79
2023/12/15 01:59:49;;;;;;;60.45;25.88;;;6.00;99.90;;;;;;5050116;28;20045;-80
2023/12/15 02:02:15;;;;;;;61.58;23.98;;;6.40;99.90;;;;;;5049683;28;20048;-80
2023/12/15 02:04:41;;;;;;;56.35;24.95;;;6.00;99.90;;;;;;5051353;28;20072;-80
2023/12/15 02:07:07;;;;;;;60.83;24.80;;;6.70;99.90;;;;;;5030181;28;20071;-79
2023/12/15 02:09:32;;;;;;;60.15;25.17;;;6.00;99.90;;;;;;5034131;28;20404;-80
2023/12/15 02:11:58;;;;;;;66.70;24.88;;;6.10;99.90;;;;;;5051664;28;20033;-80
2023/12/15 02:14:24;;;;;;;63.70;24.73;;;6.60;99.90;;;;;;5053389;28;20036;-80
2023/12/15 02:16:50;;;;;;;53.38;24.65;;;6.10;99.90;;;;;;5053410;28;20040;-80
2023/12/15 02:19:15;;;;;;;62.83;24.98;;;6.10;99.90;;;;;;5051874;28;20041;-79
2023/12/15 02:21:41;;;;;;;67.88;25.98;;;6.10;99.90;;;;;;5086538;28;20482;-80
2023/12/15 02:24:06;;;;;;;63.53;25.85;;;6.10;99.90;;;;;;5052856;28;20033;-80
2023/12/15 02:26:32;;;;;;;60.45;24.42;;;6.10;99.90;;;;;;5086987;28;20400;-80
2023/12/15 02:28:58;;;;;;;65.30;24.85;;;6.20;99.90;;;;;;5053380;28;20037;-79
2023/12/15 02:31:24;;;;;;;61.08;25.90;;;6.60;99.90;;;;;;5052052;28;20039;-79
2023/12/15 02:33:50;;;;;;;67.75;25.58;;;6.40;99.90;;;;;;5050146;28;20041;-80
2023/12/15 02:36:20;;;;;;;61.13;24.45;;;6.20;99.90;;;;;;5051293;28;20044;-80
2023/12/15 02:38:46;;;;;;;61.72;24.50;;;6.20;99.90;;;;;;5046315;28;20041;-79
2023/12/15 02:41:12;;;;;;;55.60;23.02;;;6.20;99.90;;;;;;5035972;28;20078;-79
2023/12/15 02:43:38;;;;;;;57.65;24.88;;;6.20;99.90;;;;;;5052433;28;20462;-80
2023/12/15 02:46:04;;;;;;;63.58;24.83;;;6.20;99.90;;;;;;5051606;28;20062;-79
2023/12/15 02:48:30;;;;;;;60.85;24.70;;;6.20;99.90;;;;;;5047512;28;20111;-80
2023/12/15 02:50:56;;;;;;;53.25;23.33;;;6.10;99.90;;;;;;5051807;28;20037;-80
2023/12/15 02:53:21;;;;;;;54.95;23.25;;;6.10;99.90;;;;;;5050328;28;20045;-80
2023/12/15 02:55:47;;;;;;;59.90;23.52;;;6.10;99.90;;;;;;5051617;28;20037;-80
2023/12/15 02:58:13;;;;;;;54.40;23.77;;;6.10;99.90;;;;;;5048548;28;20040;-81
2023/12/15 03:00:38;;;;;;;55.22;23.17;;;6.10;99.90;;;;;;5051694;28;20090;-80
2023/12/15 03:03:05;;;;;;;52.63;24.80;;;6.10;99.90;;;;;;5035543;28;20615;-80
2023/12/15 03:05:30;;;;;;;55.05;23.52;;;6.10;99.90;;;;;;5051709;28;20059;-80
2023/12/15 03:07:56;;;;;;;53.70;23.27;;;6.10;99.90;;;;;;5051089;28;20036;-80
2023/12/15 03:10:21;;;;;;;48.22;21.83;;;6.40;99.90;;;;;;5051691;28;20122;-80
2023/12/15 03:12:47;;;;;;;50.83;22.83;;;6.00;99.90;;;;;;5023638;28;20055;-80
2023/12/15 03:15:13;;;;;;;66.47;24.98;;;6.00;99.90;;;;;;5051539;28;20135;-80
2023/12/15 03:17:38;;;;;;;50.00;22.75;;;6.00;99.90;;;;;;5051874;28;20048;-80
2023/12/15 03:20:06;;;;;;;56.58;23.42;;;6.20;99.90;;;;;;5028871;28;20080;-80
2023/12/15 03:22:32;;;;;;;60.47;23.27;;;6.00;99.90;;;;;;5033958;28;20036;-80
2023/12/15 03:24:58;;;;;;;51.95;22.60;;;6.00;99.90;;;;;;5049993;28;20033;-79
2023/12/15 03:27:23;;;;;;;49.53;23.50;;;5.90;99.90;;;;;;5030755;28;20034;-80
2023/12/15 03:29:49;;;;;;;58.58;25.15;;;5.80;99.90;;;;;;5051627;28;20041;-80
2023/12/15 03:32:15;;;;;;;49.08;21.75;;;5.80;99.90;;;;;;5050964;28;20033;-80
2023/12/15 03:34:41;;;;;;;55.20;22.58;;;5.80;99.90;;;;;;5051253;28;20051;-80
2023/12/15 03:37:06;;;;;;;61.25;23.63;;;5.70;99.90;;;;;;5050720;28;20119;-80
2023/12/15 03:39:32;;;;;;;59.35;23.42;;;5.80;99.90;;;;;;5049911;28;20095;-80
2023/12/15 03:41:57;;;;;;;62.00;23.15;;;5.70;99.90;;;;;;5070028;28;20445;-80
2023/12/15 03:44:23;;;;;;;60.28;22.23;;;5.60;99.90;;;;;;5044755;28;20086;-80
2023/12/15 03:46:49;;;;;;;51.75;22.40;;;5.50;99.90;;;;;;5048090;28;20068;-80
2023/12/15 03:49:14;;;;;;;47.40;23.08;;;5.60;99.90;;;;;;5049482;28;20552;-80
2023/12/15 03:51:40;;;;;;;60.53;23.25;;;5.50;99.90;;;;;;5052670;28;20036;-80
2023/12/15 03:54:05;;;;;;;52.10;22.30;;;5.50;99.90;;;;;;5048399;28;20102;-81
2023/12/15 03:56:31;;;;;;;57.97;24.15;;;5.50;99.90;;;;;;5049966;28;20044;-80
2023/12/15 03:58:57;;;;;;;52.92;21.95;;;5.50;99.90;;;;;;5048083;28;20044;-80
2023/12/15 04:01:23;;;;;;;43.47;21.02;;;5.40;99.90;;;;;;5050581;28;20522;-80
2023/12/15 04:03:48;;;;;;;44.55;21.02;;;5.40;99.90;;;;;;5050420;28;20048;-80
2023/12/15 04:06:14;;;;;;;55.67;21.02;;;5.40;99.90;;;;;;5051285;28;20055;-80
2023/12/15 04:08:42;;;;;;;50.00;20.23;;;5.40;99.90;;;;;;5050088;28;20412;-81
2023/12/15 04:11:07;;;;;;;51.20;21.35;;;5.50;99.90;;;;;;5050465;28;20483;-80
2023/12/15 04:13:33;;;;;;;41.65;19.13;;;5.40;99.90;;;;;;5041663;28;20119;-80
2023/12/15 04:15:59;;;;;;;48.08;20.67;;;5.40;99.90;;;;;;5051213;28;20151;-80
2023/12/15 04:18:24;;;;;;;46.15;19.85;;;5.50;99.90;;;;;;5050783;28;20049;-80
2023/12/15 04:20:50;;;;;;;44.67;19.85;;;5.50;99.90;;;;;;5033419;28;20041;-80
2023/12/15 04:23:15;;;;;;;51.65;19.73;;;5.60;99.90;;;;;;5049680;28;20033;-79
2023/12/15 04:25:41;;;;;;;48.78;20.63;;;5.60;99.90;;;;;;5049962;28;20037;-80
2023/12/15 04:28:07;;;;;;;54.47;21.10;;;5.60;99.90;;;;;;5050420;28;20040;-81
2023/12/15 04:30:32;;;;;;;53.42;20.65;;;5.60;99.90;;;;;;5033327;28;20079;-81
2023/12/15 04:32:58;;;;;;;45.03;19.88;;;5.60;99.90;;;;;;5050574;28;20041;-79
2023/12/15 04:35:23;;;;;;;42.03;20.25;;;5.60;99.90;;;;;;5050705;28;20040;-80
2023/12/15 04:37:49;;;;;;;46.22;20.50;;;5.60;99.90;;;;;;5046710;28;20079;-80
2023/12/15 04:40:15;;;;;;;49.17;20.70;;;5.50;99.90;;;;;;5050372;28;20055;-80
2023/12/15 04:42:41;;;;;;;46.90;20.00;;;5.50;99.90;;;;;;5050329;28;20489;-80
2023/12/15 04:45:08;;;;;;;54.92;20.52;;;5.50;99.90;;;;;;5050126;28;20090;-80
2023/12/15 04:47:33;;;;;;;46.10;20.15;;;5.60;99.90;;;;;;5071230;28;20070;-80
2023/12/15 04:49:59;;;;;;;50.45;19.10;;;5.60;99.90;;;;;;5050995;28;20123;-80
2023/12/15 04:52:25;;;;;;;47.25;19.13;;;5.60;99.90;;;;;;5032554;28;20037;-80
2023/12/15 04:54:50;;;;;;;45.13;18.77;;;5.60;99.90;;;;;;5044818;28;20051;-81
2023/12/15 04:57:16;;;;;;;44.30;18.67;;;5.60;99.90;;;;;;5047427;28;20047;-79
2023/12/15 04:59:42;;;;;;;41.88;18.88;;;5.50;99.90;;;;;;5043510;28;20429;-80
2023/12/15 05:02:07;;;;;;;48.53;19.08;;;5.50;99.90;;;;;;5050106;28;20120;-81
2023/12/15 05:04:34;;;;;;;37.05;17.63;;;5.50;99.90;;;;;;5033673;28;20086;-80
2023/12/15 05:07:00;;;;;;;45.78;18.45;;;5.40;99.90;;;;;;5046815;28;20086;-80
2023/12/15 05:09:27;;;;;;;49.83;19.45;;;5.50;99.90;;;;;;5049360;28;20069;-80
2023/12/15 05:11:53;;;;;;;44.88;18.23;;;5.50;99.90;;;;;;5048542;28;20037;-80
2023/12/15 05:14:19;;;;;;;50.78;19.08;;;5.50;99.90;;;;;;5049382;28;20132;-80
2023/12/15 05:16:45;;;;;;;49.45;18.27;;;5.50;99.90;;;;;;5049502;28;20178;-80
2023/12/15 05:19:10;;;;;;;42.30;18.08;;;5.50;99.90;;;;;;5048087;28;20041;-80
2023/12/15 05:21:36;;;;;;;42.50;18.52;;;5.50;99.90;;;;;;5047444;28;20033;-80
2023/12/15 05:24:02;;;;;;;44.63;16.95;;;5.50;99.90;;;;;;5049885;28;20462;-80
2023/12/15 05:26:27;;;;;;;45.25;18.38;;;5.40;99.90;;;;;;5049191;28;20128;-81
2023/12/15 05:28:53;;;;;;;42.78;16.98;;;5.40;99.90;;;;;;5049607;28;20099;-80
2023/12/15 05:31:18;;;;;;;44.92;16.77;;;5.40;99.90;;;;;;5049288;28;20033;-80
2023/12/15 05:33:44;;;;;;;45.15;15.85;;;5.40;99.90;;;;;;5042525;28;20102;-80
2023/12/15 05:36:18;;;;;;;48.00;18.27;;;5.30;99.90;;;;;;5047181;28;20084;-80
2023/12/15 05:38:43;;;;;;;42.40;17.17;;;5.30;99.90;;;;;;5047668;28;20041;-80
2023/12/15 05:41:09;;;;;;;44.85;17.55;;;5.30;99.90;;;;;;5048137;28;20628;-80
2023/12/15 05:43:35;;;;;;;46.03;17.42;;;5.30;99.90;;;;;;5062839;28;20041;-80
2023/12/15 05:46:01;;;;;;;40.10;16.27;;;5.30;99.90;;;;;;5044508;28;20068;-80
2023/12/15 05:48:27;;;;;;;42.00;17.05;;;5.30;99.90;;;;;;5049567;28;20029;-80
2023/12/15 05:50:53;;;;;;;39.88;16.55;;;5.30;99.90;;;;;;5049217;28;20037;-80
2023/12/15 05:53:18;;;;;;;44.70;16.35;;;5.20;99.90;;;;;;5049435;28;20045;-79
2023/12/15 05:55:44;;;;;;;40.88;17.00;;;5.20;99.90;;;;;;5050319;28;20052;-80
2023/12/15 05:58:09;;;;;;;40.58;16.88;;;5.20;99.90;;;;;;5048372;28;20153;-80
2023/12/15 06:00:35;;;;;;;43.40;16.38;;;5.20;99.90;;;;;;5040612;28;20037;-80
2023/12/15 06:03:00;;;;;;;43.03;16.42;;;5.20;99.90;;;;;;5047608;28;20539;-80
2023/12/15 06:05:27;;;;;;;48.28;16.52;;;5.30;99.90;;;;;;5031113;28;20040;-80
2023/12/15 06:07:53;;;;;;;48.42;17.83;;;5.30;99.90;;;;;;5078135;28;20122;-80
2023/12/15 06:10:19;;;;;;;41.40;16.63;;;5.30;99.90;;;;;;5047462;28;20069;-80
2023/12/15 06:12:45;;;;;;;42.90;15.73;;;5.20;99.90;;;;;;5047574;28;20427;-80
2023/12/15 06:15:11;;;;;;;42.47;16.42;;;5.20;99.90;;;;;;5047533;28;20037;-80
2023/12/15 06:17:36;;;;;;;51.90;16.85;;;5.20;99.90;;;;;;5048404;28;20044;-81
2023/12/15 06:20:02;;;;;;;39.70;15.32;;;5.20;99.90;;;;;;5049084;28;20041;-81
2023/12/15 06:22:28;;;;;;;39.60;15.07;;;5.10;99.90;;;;;;5053590;28;20041;-81
2023/12/15 06:24:54;;;;;;;37.85;16.33;;;5.10;99.90;;;;;;5044434;28;20404;-80
2023/12/15 06:27:19;;;;;;;45.60;15.57;;;5.10;99.90;;;;;;5050200;28;20041;-81
2023/12/15 06:29:45;;;;;;;47.40;15.57;;;5.10;99.90;;;;;;5049526;28;20502;-81
2023/12/15 06:32:12;;;;;;;37.42;14.23;;;5.10;99.90;;;;;;5062979;28;20057;-81
2023/12/15 06:34:42;;;;;;;41.72;16.38;;;5.10;99.90;;;;;;5049151;28;20175;-80
2023/12/15 06:37:07;;;;;;;40.88;14.05;;;5.00;99.90;;;;;;5048644;28;20045;-80
2023/12/15 06:39:33;;;;;;;42.13;15.02;;;5.00;99.90;;;;;;5030734;28;20063;-80
2023/12/15 06:41:58;;;;;;;42.10;15.00;;;5.00;99.90;;;;;;5045984;28;20032;-82
2023/12/15 06:44:24;;;;;;;42.30;14.45;;;5.00;99.90;;;;;;5052409;28;20534;-80
2023/12/15 06:46:50;;;;;;;39.15;15.00;;;4.90;99.90;;;;;;5053248;28;20091;-79
2023/12/15 06:49:17;;;;;;;48.78;15.63;;;4.90;99.90;;;;;;5051921;28;20033;-80
2023/12/15 06:51:43;;;;;;;42.33;16.05;;;5.00;99.90;;;;;;5050489;28;20033;-85
2023/12/15 06:54:09;;;;;;;47.20;15.05;;;4.90;99.90;;;;;;5047076;28;20036;-82
2023/12/15 06:56:38;;;;;;;41.25;14.88;;;4.90;99.90;;;;;;5050753;28;20520;-80
2023/12/15 06:59:04;;;;;;;41.40;15.38;;;4.90;99.90;;;;;;5052502;28;20037;-80
2023/12/15 07:01:29;;;;;;;33.70;13.82;;;4.90;99.90;;;;;;5052644;28;20103;-80
2023/12/15 07:03:55;;;;;;;38.17;14.95;;;4.90;99.90;;;;;;5048234;28;20572;-81
2023/12/15 07:06:21;;;;;;;34.80;13.07;;;4.90;99.90;;;;;;5051765;28;20033;-80
2023/12/15 07:08:53;;;;;;;38.53;14.30;;;4.90;99.90;;;;;;5046207;28;20163;-80
2023/12/15 07:11:21;;;;;;;40.33;12.85;;;4.90;99.90;;;;;;5048755;28;20069;-80
2023/12/15 07:13:46;;;;;;;44.25;13.55;;;4.80;99.90;;;;;;5048502;28;20076;-79
2023/12/15 07:16:12;;;;;;;35.60;13.13;;;4.90;99.90;;;;;;5046184;28;20072;-81
2023/12/15 07:18:37;;;;;;;45.30;12.95;;;4.90;99.90;;;;;;5050377;28;20467;-80
2023/12/15 07:21:03;;;;;;;42.15;12.85;;;4.90;99.90;;;;;;5043128;28;20132;-82
2023/12/15 07:23:29;;;;;;;34.50;12.90;;;4.90;99.90;;;;;;5044544;28;20412;-80
2023/12/15 07:25:55;;;;;;;36.08;12.65;;;4.90;99.90;;;;;;5035185;28;20041;-80
2023/12/15 07:28:20;;;;;;;35.70;13.50;;;4.90;99.90;;;;;;5085369;28;20095;-80
2023/12/15 07:30:46;;;;;;;47.80;12.00;;;4.90;99.90;;;;;;5051599;28;20127;-80
2023/12/15 07:33:11;;;;;;;39.35;12.50;;;4.90;99.90;;;;;;5055186;28;20055;-81
2023/12/15 07:35:37;;;;;;;35.45;12.63;;;4.90;99.90;;;;;;5051192;28;20041;-80
2023/12/15 07:38:03;;;;;;;35.22;12.70;;;4.90;99.90;;;;;;5051572;28;20037;-81
2023/12/15 07:40:29;;;;;;;32.97;12.60;;;4.90;99.90;;;;;;5033620;28;20064;-80
2023/12/15 07:42:55;;;;;;;38.33;14.50;;;4.80;99.90;;;;;;5047261;28;20036;-81
2023/12/15 07:45:20;;;;;;;40.03;14.07;;;4.90;99.90;;;;;;5049653;28;20041;-81
2023/12/15 07:47:46;;;;;;;47.17;14.68;;;4.80;99.90;;;;;;5048884;28;20092;-80
2023/12/15 07:50:13;;;;;;;35.50;14.15;;;4.90;99.90;;;;;;5048984;28;20100;-80
2023/12/15 07:52:38;;;;;;;42.38;13.25;;;4.90;99.90;;;;;;5046906;28;20056;-80
2023/12/15 07:55:04;;;;;;;39.70;14.32;;;5.00;99.90;;;;;;5050392;28;20044;-80
2023/12/15 07:57:32;;;;;;;36.78;13.27;;;5.00;99.90;;;;;;5044458;28;20079;-81
2023/12/15 07:59:58;;;;;;;40.33;13.18;;;5.00;99.90;;;;;;5048371;28;21052;-81
2023/12/15 08:02:23;;;;;;;29.13;12.55;;;5.10;99.90;;;;;;5042245;28;20038;-81
2023/12/15 08:04:49;;;;;;;34.03;12.70;;;5.10;99.90;;;;;;5043935;28;20408;-80
2023/12/15 08:07:15;;;;;;;37.15;13.10;;;5.20;99.90;;;;;;5041861;28;20032;-80
2023/12/15 08:09:40;;;;;;;34.38;12.45;;;5.20;99.90;;;;;;5043773;28;20160;-81
2023/12/15 08:12:06;;;;;;;45.97;12.73;;;5.20;99.90;;;;;;5047485;28;20115;-81
2023/12/15 08:14:32;;;;;;;31.42;11.88;;;5.20;99.90;;;;;;5045401;28;20389;-81
2023/12/15 08:16:57;;;;;;;32.58;12.05;;;5.20;99.90;;;;;;5074048;28;20044;-81
2023/12/15 08:19:23;;;;;;;34.95;11.50;;;5.30;99.90;;;;;;5049196;28;20515;-81
2023/12/15 08:21:48;;;;;;;34.70;11.27;;;5.30;99.90;;;;;;5050654;28;20124;-81
2023/12/15 08:24:14;;;;;;;29.15;10.77;;;5.30;99.90;;;;;;5050244;28;20044;-81
2023/12/15 08:26:40;;;;;;;34.83;12.07;;;5.40;99.90;;;;;;5051087;28;20041;-80
2023/12/15 08:29:05;;;;;;;40.70;10.63;;;5.40;99.90;;;;;;5046694;28;20401;-80
2023/12/15 08:31:31;;;;;;;33.60;10.48;;;5.50;99.90;;;;;;5048915;28;20097;-81
2023/12/15 08:33:57;;;;;;;30.83;10.52;;;5.50;99.90;;;;;;5061524;28;20037;-81
2023/12/15 08:36:22;;;;;;;35.95;11.55;;;5.50;99.90;;;;;;5033791;28;20119;-80
2023/12/15 08:38:48;;;;;;;30.33;11.02;;;5.50;99.90;;;;;;5048742;28;20680;-80
2023/12/15 08:41:13;;;;;;;36.20;11.43;;;5.50;99.90;;;;;;5051013;28;20048;-80
2023/12/15 08:43:39;;;;;;;33.97;10.07;;;5.60;99.90;;;;;;5049004;28;20099;-81
2023/12/15 08:46:05;;;;;;;33.03;9.30;;;5.60;99.90;;;;;;5049785;28;20041;-80
2023/12/15 08:48:31;;;;;;;30.55;9.70;;;5.60;99.90;;;;;;5047558;28;20044;-80
2023/12/15 08:50:57;;;;;;;31.77;9.05;;;5.60;99.90;;;;;;5045236;28;20037;-80
2023/12/15 08:53:23;;;;;;;31.42;10.88;;;5.60;99.90;;;;;;5044213;28;20124;-80
2023/12/15 08:55:48;;;;;;;30.63;9.55;;;5.60;99.90;;;;;;5049954;28;20053;-80
2023/12/15 08:58:14;;;;;;;29.20;9.20;;;5.60;99.90;;;;;;5050220;28;20056;-80
2023/12/15 09:00:40;;;;;;;30.65;10.13;;;5.60;99.90;;;;;;5048607;28;20476;-80
2023/12/15 09:03:07;;;;;;;30.85;9.57;;;5.60;99.90;;;;;;5048756;28;20508;-81
2023/12/15 09:05:34;;;;;;;27.40;8.85;;;5.60;99.90;;;;;;5049563;28;20456;-81
2023/12/15 09:08:00;;;;;;;29.65;9.48;;;5.60;99.90;;;;;;5049856;28;20382;-81
2023/12/15 09:10:32;;;;;;;31.30;9.95;;;5.60;99.90;;;;;;5049552;28;20109;-80
2023/12/15 09:12:57;;;;;;;33.92;9.55;;;5.70;99.90;;;;;;5048957;28;20041;-80
2023/12/15 09:15:23;;;;;;;25.75;9.38;;;5.70;99.90;;;;;;5033959;28;20040;-80
2023/12/15 09:17:49;;;;;;;28.70;9.23;;;5.70;99.90;;;;;;5048967;28;20687;-80
2023/12/15 09:20:14;;;;;;;27.63;9.40;;;5.70;99.90;;;;;;5031136;28;20523;-80
2023/12/15 09:22:40;;;;;;;30.98;10.35;;;5.80;99.90;;;;;;5049051;28;20155;-80
2023/12/15 09:25:07;;;;;;;25.83;8.80;;;5.80;99.90;;;;;;5032731;28;20075;-80
2023/12/15 09:27:32;;;;;;;23.70;8.95;;;5.80;99.90;;;;;;5050383;28;20033;-80
2023/12/15 09:29:59;;;;;;;33.72;9.65;;;5.90;99.90;;;;;;5050353;28;20043;-80
2023/12/15 09:32:25;;;;;;;33.40;9.88;;;5.90;99.90;;;;;;5048595;28;20049;-81
2023/12/15 09:34:51;;;;;;;27.38;8.93;;;5.90;99.90;;;;;;5048117;28;20059;-80
2023/12/15 09:37:16;;;;;;;27.05;8.60;;;5.90;99.90;;;;;;5049918;28;20045;-80
2023/12/15 09:39:42;;;;;;;34.35;7.65;;;5.90;99.90;;;;;;5048039;28;20417;-80
2023/12/15 09:42:07;;;;;;;43.28;9.15;;;5.90;99.90;;;;;;5049448;28;20088;-79
2023/12/15 09:44:33;;;;;;;34.85;8.52;;;6.00;99.90;;;;;;5050205;28;20036;-80
2023/12/15 09:46:59;;;;;;;26.45;8.35;;;6.00;99.90;;;;;;5050493;28;20443;-80
2023/12/15 09:49:25;;;;;;;32.72;8.30;;;6.10;99.90;;;;;;5045136;28;20037;-80
2023/12/15 09:51:51;;;;;;;25.83;7.65;;;6.10;99.90;;;;;;5036186;28;20042;-80
2023/12/15 09:54:19;;;;;;;25.15;8.20;;;6.20;99.90;;;;;;5036917;28;20068;-80
2023/12/15 09:56:46;;;;;;;24.67;8.05;;;6.20;99.90;;;;;;5044618;28;20049;-80
2023/12/15 09:59:12;;;;;;;35.47;7.80;;;6.30;99.90;;;;;;5047235;28;20038;-81
2023/12/15 10:01:38;;;;;;;27.70;7.47;;;6.40;99.90;;;;;;5048850;28;20053;-81
2023/12/15 10:04:07;;;;;;;31.63;8.07;;;6.40;99.90;;;;;;5050410;28;20056;-80
2023/12/15 10:06:36;;;;;;;30.73;7.57;;;6.50;99.90;;;;;;5049705;28;20029;-79
2023/12/15 10:09:09;;;;;;;29.15;7.72;;;6.50;99.90;;;;;;5042452;28;20117;-81
2023/12/15 10:11:36;;;;;;;26.65;8.05;;;6.60;99.90;;;;;;5045945;28;20045;-81
2023/12/15 10:14:04;;;;;;;27.75;7.32;;;6.60;99.90;;;;;;5053415;28;20052;-80
2023/12/15 10:16:30;;;;;;;31.48;7.70;;;6.70;99.90;;;;;;5053652;28;20049;-80
2023/12/15 10:18:55;;;;;;;22.95;6.35;;;6.70;99.90;;;;;;5053863;28;20062;-80
2023/12/15 10:21:21;;;;;;;27.13;6.93;;;6.80;99.90;;;;;;5036254;28;20106;-80
2023/12/15 10:23:47;;;;;;;33.25;6.32;;;6.90;99.90;;;;;;5085361;28;20094;-80
2023/12/15 10:26:14;;;;;;;24.27;5.97;;;6.90;99.90;;;;;;5086514;28;20025;-80
2023/12/15 10:28:40;;;;;;;28.85;6.38;;;6.90;99.90;;;;;;5053932;28;20091;-80
2023/12/15 10:31:07;;;;;;;33.30;6.43;;;7.00;99.90;;;;;;5053201;28;20578;-80
2023/12/15 10:33:33;;;;;;;31.27;7.18;;;7.00;99.90;;;;;;5053870;28;20380;-82
2023/12/15 10:36:03;;;;;;;30.27;5.60;;;7.00;99.90;;;;;;5053026;28;20041;-80
2023/12/15 10:38:30;;;;;;;25.13;5.88;;;7.10;99.90;;;;;;5086275;28;20426;-80
2023/12/15 10:40:57;;;;;;;24.95;5.80;;;7.10;99.90;;;;;;5084926;28;20508;-79
2023/12/15 10:43:23;;;;;;;31.85;7.13;;;7.10;99.90;;;;;;5085144;28;20036;-80
2023/12/15 10:45:51;;;;;;;30.65;6.18;;;7.10;99.90;;;;;;5087015;28;20071;-80
2023/12/15 10:48:18;;;;;;;41.47;6.78;;;7.20;99.90;;;;;;5050581;28;20496;-80
2023/12/15 10:50:45;;;;;;;38.17;6.47;;;7.20;99.90;;;;;;5084389;28;20067;-80
2023/12/15 10:53:13;;;;;;;25.88;6.60;;;7.30;99.90;;;;;;5076660;28;20110;-81
2023/12/15 10:55:43;;;;;;;35.28;7.45;;;7.40;99.90;;;;;;5050729;28;20075;-81
2023/12/15 10:58:11;;;;;;;21.30;5.93;;;7.40;99.90;;;;;;5048963;28;20073;-82
2023/12/15 11:00:38;;;;;;;28.83;6.65;;;7.50;99.90;;;;;;5045512;28;20041;-80
2023/12/15 11:03:05;;;;;;;26.80;5.82;;;7.50;99.90;;;;;;5050547;28;20044;-80
2023/12/15 11:05:35;;;;;;;27.92;6.28;;;7.50;99.90;;;;;;5057515;28;20634;-80
2023/12/15 11:08:01;;;;;;;28.70;5.93;;;7.60;99.90;;;;;;5045730;28;20163;-80
2023/12/15 11:10:27;;;;;;;34.97;7.40;;;7.60;99.90;;;;;;5042621;28;20045;-79
2023/12/15 11:12:53;;;;;;;31.75;7.10;;;7.70;99.90;;;;;;5043474;28;20044;-80
2023/12/15 11:15:19;;;;;;;26.40;6.43;;;7.70;99.90;;;;;;5048027;28;20033;-80
2023/12/15 11:17:56;;;;;;;26.50;6.10;;;7.80;99.90;;;;;;5052696;28;20044;-80
2023/12/15 11:20:25;;;;;;;33.42;7.05;;;7.80;99.90;;;;;;5048960;28;20036;-80
2023/12/15 11:23:09;;;;;;;32.35;6.53;;;7.90;99.90;;;;;;5080591;28;20048;-80
2023/12/15 11:25:53;;;;;;;31.50;6.88;;;7.90;99.90;;;;;;5052434;28;20036;-80
2023/12/15 11:28:20;;;;;;;25.17;5.72;;;7.90;99.90;;;;;;5049633;28;20041;-80
2023/12/15 11:30:48;;;;;;;29.48;6.35;;;8.00;99.90;;;;;;5045104;28;20044;-80
2023/12/15 11:33:40;;;;;;;32.95;5.53;;;8.10;99.90;;;;;;5052098;28;20049;-80
2023/12/15 11:36:07;;;;;;;27.15;6.10;;;8.20;99.90;;;;;;5073831;28;20094;-80
2023/12/15 11:38:34;;;;;;;33.83;6.50;;;8.20;99.90;;;;;;5050017;28;20040;-79
2023/12/15 11:41:01;;;;;;;24.92;6.03;;;8.30;99.90;;;;;;5049628;28;20086;-82
2023/12/15 11:43:31;;;;;;;27.13;5.90;;;8.40;99.90;;;;;;5032812;28;20064;-79
2023/12/15 11:45:57;;;;;;;24.52;6.10;;;8.40;99.90;;;;;;5068300;28;20028;-79
2023/12/15 11:48:24;;;;;;;31.77;5.80;;;8.50;99.90;;;;;;5053346;28;20037;-80
2023/12/15 11:50:50;;;;;;;30.30;5.47;;;8.50;99.90;;;;;;5044676;28;20112;-79
2023/12/15 11:53:17;;;;;;;30.50;6.28;;;8.60;99.90;;;;;;5049186;28;20121;-80
2023/12/15 11:55:44;;;;;;;26.40;5.63;;;8.60;99.90;;;;;;5047890;28;20084;-80
2023/12/15 11:58:10;;;;;;;33.80;6.85;;;8.80;99.90;;;;;;5048738;28;20644;-79
2023/12/15 12:00:36;;;;;;;29.00;6.10;;;8.80;99.90;;;;;;5046515;28;20162;-80
2023/12/15 12:03:05;;;;;;;32.38;6.10;;;8.90;99.90;;;;;;5048774;28;20036;-79
2023/12/15 12:05:31;;;;;;;26.50;5.43;;;8.90;99.90;;;;;;5028032;28;20445;-79
2023/12/15 12:07:58;;;;;;;21.10;5.57;;;9.00;99.90;;;;;;5049905;28;20041;-79
2023/12/15 12:10:39;;;;;;;28.98;5.35;;;9.10;99.90;;;;;;5029383;28;20036;-80
2023/12/15 12:13:06;;;;;;;28.88;7.00;;;9.10;99.90;;;;;;5048160;28;20060;-81
2023/12/15 12:15:32;;;;;;;33.10;6.72;;;9.20;99.90;;;;;;5048629;28;20048;-79
2023/12/15 12:17:58;;;;;;;35.95;6.25;;;9.10;99.90;;;;;;5047913;28;20033;-79
2023/12/15 12:20:28;;;;;;;27.73;5.72;;;9.00;99.90;;;;;;5048211;28;20166;-80
2023/12/15 12:22:55;;;;;;;26.17;6.00;;;8.90;99.90;;;;;;5048523;28;20040;-81
2023/12/15 12:25:21;;;;;;;27.50;5.97;;;8.80;99.90;;;;;;5049327;28;20033;-81
2023/12/15 12:27:46;;;;;;;29.55;6.00;;;8.80;99.90;;;;;;5048840;28;20568;-80
2023/12/15 12:30:13;;;;;;;28.92;6.28;;;8.70;99.90;;;;;;5048939;28;20068;-80
2023/12/15 12:32:40;;;;;;;27.30;5.82;;;8.80;99.90;;;;;;5033188;28;20485;-80
2023/12/15 12:35:06;;;;;;;27.20;5.57;;;8.70;99.90;;;;;;5034280;28;20472;-79